createdAt,value
2023-08-04T00:00:00.092Z,96.50
2023-08-04T00:00:09.516Z,96.60
2023-08-04T00:00:18.910Z,96.60
2023-08-04T00:00:28.317Z,96.60
2023-08-04T00:00:47.126Z,96.80
2023-08-04T00:00:56.566Z,96.90
2023-08-04T00:01:05.976Z,96.90
2023-08-04T00:01:15.409Z,97.00
2023-08-04T00:01:24.798Z,97.00
2023-08-04T00:01:34.182Z,97.00
2023-08-04T00:01:53.013Z,97.00
2023-08-04T00:02:02.455Z,97.00
2023-08-04T00:02:11.774Z,97.00
2023-08-04T00:02:21.229Z,97.00
2023-08-04T00:02:30.673Z,97.00
2023-08-04T00:02:40.052Z,96.90
2023-08-04T00:02:59.058Z,96.80
2023-08-04T00:03:08.461Z,96.70
2023-08-04T00:03:17.793Z,96.70
2023-08-04T00:03:27.243Z,96.80
2023-08-04T00:03:36.632Z,96.80
2023-08-04T00:03:46.180Z,96.80
2023-08-04T00:04:04.962Z,96.90
2023-08-04T00:04:14.430Z,96.80
2023-08-04T00:04:23.775Z,96.80
2023-08-04T00:04:33.169Z,96.80
2023-08-04T00:04:42.558Z,96.80
2023-08-04T00:04:51.951Z,96.80
2023-08-04T00:05:10.787Z,96.70
2023-08-04T00:05:20.192Z,96.70
2023-08-04T00:05:29.648Z,96.70
2023-08-04T00:05:39.070Z,96.80
2023-08-04T00:05:48.478Z,96.80
2023-08-04T00:05:57.882Z,96.80
2023-08-04T00:06:16.696Z,96.90
2023-08-04T00:06:26.259Z,96.80
2023-08-04T00:06:35.661Z,96.80
2023-08-04T00:06:45.166Z,96.70
2023-08-04T00:06:54.480Z,96.60
2023-08-04T00:07:03.861Z,96.70
2023-08-04T00:07:22.652Z,96.60
2023-08-04T00:07:32.084Z,96.60
2023-08-04T00:07:41.495Z,96.50
2023-08-04T00:07:50.890Z,96.50
2023-08-04T00:08:00.357Z,96.50
2023-08-04T00:08:09.798Z,96.40
2023-08-04T00:08:28.662Z,96.30
2023-08-04T00:08:38.058Z,96.20
2023-08-04T00:08:47.443Z,96.30
2023-08-04T00:08:56.823Z,96.40
2023-08-04T00:09:06.220Z,96.40
2023-08-04T00:09:15.671Z,96.40
2023-08-04T00:09:34.497Z,96.40
2023-08-04T00:09:43.938Z,96.30
2023-08-04T00:09:53.292Z,96.30
2023-08-04T00:10:02.860Z,96.20
2023-08-04T00:10:12.247Z,96.20
2023-08-04T00:10:21.690Z,96.20
2023-08-04T00:10:40.635Z,96.20
2023-08-04T00:10:50.062Z,96.10
2023-08-04T00:10:59.440Z,96.10
2023-08-04T00:11:08.834Z,96.10
2023-08-04T00:11:18.239Z,96.10
2023-08-04T00:11:27.626Z,96.20
2023-08-04T00:11:46.678Z,96.10
2023-08-04T00:11:55.854Z,96.20
2023-08-04T00:12:05.306Z,96.20
2023-08-04T00:12:14.701Z,96.10
2023-08-04T00:12:24.190Z,96.10
2023-08-04T00:12:33.587Z,96.20
2023-08-04T00:12:52.427Z,96.00
2023-08-04T00:13:01.855Z,96.00
2023-08-04T00:13:11.317Z,96.00
2023-08-04T00:13:20.945Z,96.00
2023-08-04T00:13:30.342Z,96.00
2023-08-04T00:13:39.763Z,96.00
2023-08-04T00:13:58.594Z,96.10
2023-08-04T00:14:08.009Z,96.10
2023-08-04T00:14:17.478Z,96.10
2023-08-04T00:14:26.869Z,96.10
2023-08-04T00:14:36.268Z,96.20
2023-08-04T00:14:45.694Z,96.20
2023-08-04T00:15:04.567Z,96.40
2023-08-04T00:15:13.928Z,96.50
2023-08-04T00:15:23.305Z,96.60
2023-08-04T00:15:32.706Z,96.80
2023-08-04T00:15:42.126Z,96.80
2023-08-04T00:15:51.550Z,97.00
2023-08-04T00:16:10.320Z,97.30
2023-08-04T00:16:19.709Z,97.50
2023-08-04T00:16:29.094Z,97.60
2023-08-04T00:16:38.514Z,97.70
2023-08-04T00:16:47.914Z,97.90
2023-08-04T00:16:57.301Z,98.10
2023-08-04T00:17:16.112Z,98.40
2023-08-04T00:17:25.587Z,98.70
2023-08-04T00:17:34.944Z,98.80
2023-08-04T00:17:44.430Z,98.90
2023-08-04T00:17:53.826Z,99.20
2023-08-04T00:18:03.219Z,99.30
2023-08-04T00:18:21.948Z,99.70
2023-08-04T00:18:31.426Z,99.90
2023-08-04T00:18:40.860Z,99.90
2023-08-04T00:18:50.241Z,99.90
2023-08-04T00:18:59.665Z,99.90
2023-08-04T00:19:09.075Z,99.90
2023-08-04T00:19:27.934Z,99.90
2023-08-04T00:19:37.337Z,99.90
2023-08-04T00:19:46.744Z,99.90
2023-08-04T00:19:56.141Z,99.90
2023-08-04T00:20:05.524Z,99.90
2023-08-04T00:20:14.903Z,99.90
2023-08-04T00:20:33.833Z,99.90
2023-08-04T00:20:43.222Z,99.90
2023-08-04T00:20:52.638Z,99.90
2023-08-04T00:21:02.040Z,99.90
2023-08-04T00:21:11.451Z,99.90
2023-08-04T00:21:20.861Z,99.90
2023-08-04T00:21:39.631Z,99.90
2023-08-04T00:21:49.177Z,99.90
2023-08-04T00:21:58.431Z,99.90
2023-08-04T00:22:07.816Z,99.90
2023-08-04T00:22:17.225Z,99.90
2023-08-04T00:22:26.591Z,99.90
2023-08-04T00:22:45.423Z,99.90
2023-08-04T00:22:54.867Z,99.90
2023-08-04T00:23:04.280Z,99.90
2023-08-04T00:23:13.682Z,99.90
2023-08-04T00:23:23.067Z,99.90
2023-08-04T00:23:32.523Z,99.90
2023-08-04T00:23:51.282Z,99.90
2023-08-04T00:24:00.676Z,99.90
2023-08-04T00:24:10.067Z,99.90
2023-08-04T00:24:19.523Z,99.90
2023-08-04T00:24:28.919Z,99.90
2023-08-04T00:24:38.290Z,99.90
2023-08-04T00:24:57.175Z,99.90
2023-08-04T00:25:06.555Z,99.90
2023-08-04T00:25:15.991Z,99.90
2023-08-04T00:25:25.362Z,99.90
2023-08-04T00:25:34.754Z,99.90
2023-08-04T00:25:44.156Z,99.90
2023-08-04T00:26:03.030Z,99.90
2023-08-04T00:26:12.405Z,99.90
2023-08-04T00:26:21.829Z,99.90
2023-08-04T00:26:31.219Z,99.90
2023-08-04T00:26:40.620Z,99.90
2023-08-04T00:26:50.414Z,99.90
2023-08-04T00:27:09.228Z,99.90
2023-08-04T00:27:18.614Z,99.90
2023-08-04T00:27:28.059Z,99.90
2023-08-04T00:27:37.455Z,99.90
2023-08-04T00:27:46.857Z,99.90
2023-08-04T00:27:56.245Z,99.90
2023-08-04T00:28:15.391Z,99.90
2023-08-04T00:28:24.818Z,99.90
2023-08-04T00:28:34.234Z,99.90
2023-08-04T00:28:43.712Z,99.90
2023-08-04T00:28:53.090Z,99.90
2023-08-04T00:29:02.491Z,99.90
2023-08-04T00:29:53.657Z,99.90
2023-08-04T00:30:03.076Z,99.90
2023-08-04T00:30:12.508Z,99.90
2023-08-04T00:30:21.946Z,99.90
2023-08-04T00:30:31.390Z,99.90
2023-08-04T00:30:40.739Z,99.90
2023-08-04T00:30:59.526Z,99.90
2023-08-04T00:31:08.937Z,99.90
2023-08-04T00:31:18.390Z,99.90
2023-08-04T00:31:27.753Z,99.90
2023-08-04T00:31:37.174Z,99.90
2023-08-04T00:31:46.851Z,99.90
2023-08-04T00:32:05.369Z,99.90
2023-08-04T00:32:14.766Z,99.90
2023-08-04T00:32:24.185Z,99.90
2023-08-04T00:32:33.604Z,99.90
2023-08-04T00:32:43.020Z,99.90
2023-08-04T00:32:52.464Z,99.90
2023-08-04T00:33:11.255Z,99.90
2023-08-04T00:33:20.642Z,99.90
2023-08-04T00:33:30.066Z,99.90
2023-08-04T00:33:39.466Z,99.90
2023-08-04T00:33:48.885Z,99.90
2023-08-04T00:33:58.284Z,99.90
2023-08-04T00:34:17.228Z,99.90
2023-08-04T00:34:26.655Z,99.90
2023-08-04T00:34:36.055Z,99.90
2023-08-04T00:34:45.480Z,99.90
2023-08-04T00:34:54.881Z,99.90
2023-08-04T00:35:04.302Z,99.90
2023-08-04T00:35:23.111Z,99.90
2023-08-04T00:35:32.519Z,99.90
2023-08-04T00:35:41.908Z,99.90
2023-08-04T00:35:51.295Z,99.90
2023-08-04T00:36:00.705Z,99.90
2023-08-04T00:36:10.069Z,99.90
2023-08-04T00:36:28.844Z,99.90
2023-08-04T00:36:38.243Z,99.90
2023-08-04T00:36:47.644Z,99.90
2023-08-04T00:36:57.044Z,99.90
2023-08-04T00:37:06.498Z,99.90
2023-08-04T00:37:15.884Z,99.90
2023-08-04T00:37:34.708Z,99.90
2023-08-04T00:37:44.076Z,99.90
2023-08-04T00:37:53.480Z,99.90
2023-08-04T00:38:02.878Z,99.90
2023-08-04T00:38:12.278Z,99.90
2023-08-04T00:38:21.702Z,99.90
2023-08-04T00:38:40.512Z,99.90
2023-08-04T00:38:49.955Z,99.90
2023-08-04T00:38:59.363Z,99.90
2023-08-04T00:39:08.803Z,99.90
2023-08-04T00:39:18.286Z,99.90
2023-08-04T00:39:27.779Z,99.90
2023-08-04T00:39:46.649Z,99.90
2023-08-04T00:39:56.040Z,99.90
2023-08-04T00:40:05.431Z,99.90
2023-08-04T00:40:14.839Z,99.90
2023-08-04T00:40:24.300Z,99.90
2023-08-04T00:40:33.685Z,99.90
2023-08-04T00:40:52.565Z,99.90
2023-08-04T00:41:01.995Z,99.90
2023-08-04T00:41:11.381Z,99.90
2023-08-04T00:41:20.755Z,99.90
2023-08-04T00:41:30.178Z,99.90
2023-08-04T00:41:39.638Z,99.90
2023-08-04T00:41:58.392Z,99.90
2023-08-04T00:42:07.969Z,99.90
2023-08-04T00:42:17.383Z,99.90
2023-08-04T00:42:26.808Z,99.90
2023-08-04T00:42:36.216Z,99.90
2023-08-04T00:42:45.619Z,99.90
2023-08-04T00:43:04.387Z,99.90
2023-08-04T00:43:13.783Z,99.90
2023-08-04T00:43:23.175Z,99.90
2023-08-04T00:43:32.618Z,99.90
2023-08-04T00:43:42.035Z,99.90
2023-08-04T00:43:51.398Z,99.90
2023-08-04T00:44:10.224Z,99.90
2023-08-04T00:44:19.660Z,99.90
2023-08-04T00:44:29.071Z,99.90
2023-08-04T00:44:38.474Z,99.90
2023-08-04T00:44:47.873Z,99.90
2023-08-04T00:44:57.293Z,99.90
2023-08-04T00:45:16.100Z,99.90
2023-08-04T00:45:25.488Z,99.90
2023-08-04T00:45:35.003Z,99.90
2023-08-04T00:45:44.475Z,99.90
2023-08-04T00:45:53.846Z,99.90
2023-08-04T00:46:03.267Z,99.90
2023-08-04T00:46:22.084Z,99.90
2023-08-04T00:46:31.426Z,99.90
2023-08-04T00:46:40.806Z,99.90
2023-08-04T00:46:50.214Z,99.90
2023-08-04T00:46:59.604Z,99.90
2023-08-04T00:47:08.997Z,99.90
2023-08-04T00:47:27.800Z,99.90
2023-08-04T00:47:37.234Z,99.90
2023-08-04T00:47:46.671Z,99.90
2023-08-04T00:47:56.060Z,99.90
2023-08-04T00:48:05.457Z,99.90
2023-08-04T00:48:14.831Z,99.90
2023-08-04T00:48:33.658Z,99.90
2023-08-04T00:48:43.058Z,99.90
2023-08-04T00:48:52.511Z,99.90
2023-08-04T00:49:01.992Z,99.90
2023-08-04T00:49:11.381Z,99.90
2023-08-04T00:49:20.767Z,99.90
2023-08-04T00:49:39.614Z,99.90
2023-08-04T00:49:49.023Z,99.90
2023-08-04T00:49:58.397Z,99.90
2023-08-04T00:50:07.813Z,99.90
2023-08-04T00:50:17.217Z,99.90
2023-08-04T00:50:26.649Z,99.90
2023-08-04T00:50:45.432Z,99.90
2023-08-04T00:50:54.813Z,99.90
2023-08-04T00:51:04.220Z,99.90
2023-08-04T00:51:13.623Z,99.90
2023-08-04T00:51:23.047Z,99.90
2023-08-04T00:51:32.441Z,99.90
2023-08-04T00:51:51.229Z,99.90
2023-08-04T00:52:00.625Z,99.90
2023-08-04T00:52:10.043Z,99.90
2023-08-04T00:52:19.409Z,99.90
2023-08-04T00:52:29.049Z,99.90
2023-08-04T00:52:38.444Z,99.90
2023-08-04T00:52:57.255Z,99.90
2023-08-04T00:53:06.768Z,99.90
2023-08-04T00:53:16.169Z,99.90
2023-08-04T00:53:25.560Z,99.90
2023-08-04T00:53:34.967Z,99.90
2023-08-04T00:53:44.391Z,99.90
2023-08-04T00:54:03.233Z,99.90
2023-08-04T00:54:12.626Z,99.90
2023-08-04T00:54:22.042Z,99.90
2023-08-04T00:54:31.621Z,99.90
2023-08-04T00:54:41.015Z,99.90
2023-08-04T00:54:50.628Z,99.90
2023-08-04T00:55:09.640Z,99.90
2023-08-04T00:55:19.105Z,99.90
2023-08-04T00:55:28.507Z,99.90
2023-08-04T00:55:37.925Z,99.90
2023-08-04T00:55:47.341Z,99.90
2023-08-04T00:55:56.733Z,99.90
2023-08-04T00:56:15.507Z,99.90
2023-08-04T00:56:24.904Z,99.90
2023-08-04T00:56:34.303Z,99.90
2023-08-04T00:56:43.744Z,99.90
2023-08-04T00:56:53.155Z,99.90
2023-08-04T00:57:02.574Z,99.90
2023-08-04T00:57:21.388Z,99.90
2023-08-04T00:57:30.796Z,99.90
2023-08-04T00:57:40.186Z,99.90
2023-08-04T00:57:49.604Z,99.90
2023-08-04T00:57:59.043Z,99.90
2023-08-04T00:58:08.433Z,99.90
2023-08-04T00:58:27.225Z,99.90
2023-08-04T00:58:36.627Z,99.90
2023-08-04T00:58:46.028Z,99.90
2023-08-04T00:58:55.425Z,99.90
2023-08-04T00:59:04.867Z,99.90
2023-08-04T00:59:14.228Z,99.90
2023-08-04T00:59:33.184Z,99.90
2023-08-04T00:59:42.557Z,99.90
2023-08-04T00:59:51.980Z,99.90
2023-08-04T01:00:01.403Z,99.90
2023-08-04T01:00:10.815Z,99.90
2023-08-04T01:00:20.232Z,99.90
2023-08-04T01:00:39.062Z,99.90
2023-08-04T01:00:48.470Z,99.90
2023-08-04T01:00:57.866Z,99.90
2023-08-04T01:01:07.406Z,99.90
2023-08-04T01:01:16.765Z,99.90
2023-08-04T01:01:26.211Z,99.90
2023-08-04T01:01:45.441Z,99.90
2023-08-04T01:01:54.413Z,99.90
2023-08-04T01:02:03.739Z,99.90
2023-08-04T01:02:13.130Z,99.90
2023-08-04T01:02:22.577Z,99.90
2023-08-04T01:02:32.117Z,99.90
2023-08-04T01:02:50.987Z,99.90
2023-08-04T01:03:00.380Z,99.90
2023-08-04T01:03:09.769Z,99.90
2023-08-04T01:03:19.117Z,99.90
2023-08-04T01:03:28.556Z,99.90
2023-08-04T01:03:37.978Z,99.90
2023-08-04T01:03:56.742Z,99.90
2023-08-04T01:04:06.134Z,99.90
2023-08-04T01:04:15.554Z,99.90
2023-08-04T01:04:24.972Z,99.90
2023-08-04T01:04:34.393Z,99.90
2023-08-04T01:04:43.789Z,99.90
2023-08-04T01:05:04.520Z,99.90
2023-08-04T01:05:12.060Z,99.90
2023-08-04T01:05:21.495Z,99.90
2023-08-04T01:05:30.886Z,99.90
2023-08-04T01:05:40.297Z,99.90
2023-08-04T01:05:50.082Z,99.90
2023-08-04T01:06:09.059Z,99.90
2023-08-04T01:06:18.464Z,99.90
2023-08-04T01:06:27.879Z,99.90
2023-08-04T01:06:37.328Z,99.90
2023-08-04T01:06:46.798Z,99.90
2023-08-04T01:06:56.218Z,99.90
2023-08-04T01:07:15.152Z,99.90
2023-08-04T01:07:24.704Z,99.90
2023-08-04T01:07:34.094Z,99.90
2023-08-04T01:07:43.549Z,99.90
2023-08-04T01:07:52.963Z,99.90
2023-08-04T01:08:02.368Z,99.90
2023-08-04T01:08:21.208Z,99.90
2023-08-04T01:08:30.678Z,99.90
2023-08-04T01:08:40.135Z,99.90
2023-08-04T01:08:49.551Z,99.90
2023-08-04T01:08:58.964Z,99.90
2023-08-04T01:09:08.383Z,99.90
2023-08-04T01:09:27.228Z,99.90
2023-08-04T01:09:36.745Z,99.90
2023-08-04T01:09:49.230Z,99.90
2023-08-04T01:09:56.163Z,99.90
2023-08-04T01:10:05.587Z,99.90
2023-08-04T01:10:14.998Z,99.90
2023-08-04T01:10:33.802Z,99.90
2023-08-04T01:10:43.212Z,99.90
2023-08-04T01:10:52.640Z,99.90
2023-08-04T01:11:02.065Z,99.90
2023-08-04T01:11:11.484Z,99.90
2023-08-04T01:11:20.893Z,99.90
2023-08-04T01:11:39.731Z,99.90
2023-08-04T01:11:49.341Z,99.90
2023-08-04T01:11:58.560Z,99.90
2023-08-04T01:12:07.934Z,99.90
2023-08-04T01:12:17.336Z,99.90
2023-08-04T01:12:26.725Z,99.90
2023-08-04T01:12:45.514Z,99.90
2023-08-04T01:12:54.900Z,99.90
2023-08-04T01:13:04.330Z,99.90
2023-08-04T01:13:13.710Z,99.90
2023-08-04T01:13:23.214Z,99.90
2023-08-04T01:13:32.520Z,99.90
2023-08-04T01:13:51.303Z,99.90
2023-08-04T01:14:00.690Z,99.90
2023-08-04T01:14:10.067Z,99.90
2023-08-04T01:14:19.449Z,99.90
2023-08-04T01:14:28.940Z,99.90
2023-08-04T01:14:38.354Z,99.90
2023-08-04T01:14:57.175Z,99.90
2023-08-04T01:15:06.704Z,99.90
2023-08-04T01:15:16.103Z,99.90
2023-08-04T01:15:25.528Z,99.90
2023-08-04T01:15:34.947Z,99.90
2023-08-04T01:15:44.379Z,99.90
2023-08-04T01:16:03.259Z,99.90
2023-08-04T01:16:12.578Z,99.90
2023-08-04T01:16:22.081Z,99.90
2023-08-04T01:16:31.351Z,99.90
2023-08-04T01:16:40.757Z,99.90
2023-08-04T01:16:50.152Z,99.90
2023-08-04T01:17:08.986Z,99.90
2023-08-04T01:17:20.357Z,99.90
2023-08-04T01:17:27.791Z,99.90
2023-08-04T01:17:37.247Z,99.90
2023-08-04T01:17:46.651Z,99.90
2023-08-04T01:17:56.045Z,99.90
2023-08-04T01:18:14.764Z,99.90
2023-08-04T01:18:24.164Z,99.90
2023-08-04T01:18:33.576Z,99.90
2023-08-04T01:18:42.972Z,99.90
2023-08-04T01:18:52.376Z,99.90
2023-08-04T01:19:01.782Z,99.90
2023-08-04T01:19:20.559Z,99.90
2023-08-04T01:19:30.432Z,99.90
2023-08-04T01:19:39.843Z,99.90
2023-08-04T01:19:49.215Z,99.90
2023-08-04T01:19:58.616Z,99.90
2023-08-04T01:20:07.976Z,99.90
2023-08-04T01:20:26.772Z,99.90
2023-08-04T01:20:36.171Z,99.90
2023-08-04T01:20:45.576Z,99.90
2023-08-04T01:20:54.999Z,99.90
2023-08-04T01:21:04.437Z,99.90
2023-08-04T01:21:13.923Z,99.90
2023-08-04T01:21:32.719Z,99.90
2023-08-04T01:21:42.205Z,99.90
2023-08-04T01:21:51.657Z,99.90
2023-08-04T01:22:00.969Z,99.90
2023-08-04T01:22:10.356Z,99.90
2023-08-04T01:22:19.747Z,99.90
2023-08-04T01:22:38.586Z,99.90
2023-08-04T01:22:47.982Z,99.90
2023-08-04T01:22:57.376Z,99.90
2023-08-04T01:23:06.755Z,99.90
2023-08-04T01:23:16.119Z,99.90
2023-08-04T01:23:25.484Z,99.90
2023-08-04T01:23:44.363Z,99.90
2023-08-04T01:23:53.802Z,99.90
2023-08-04T01:24:03.189Z,99.90
2023-08-04T01:24:12.587Z,99.90
2023-08-04T01:24:22.033Z,99.90
2023-08-04T01:24:31.521Z,99.90
2023-08-04T01:24:50.200Z,99.90
2023-08-04T01:24:59.609Z,99.90
2023-08-04T01:25:09.034Z,99.90
2023-08-04T01:25:18.432Z,99.90
2023-08-04T01:25:27.813Z,99.90
2023-08-04T01:25:37.211Z,99.90
2023-08-04T01:25:56.045Z,99.90
2023-08-04T01:26:05.477Z,99.90
2023-08-04T01:26:14.886Z,99.90
2023-08-04T01:26:24.275Z,99.90
2023-08-04T01:26:33.712Z,99.90
2023-08-04T01:26:43.113Z,99.90
2023-08-04T01:27:01.940Z,99.90
2023-08-04T01:27:11.347Z,99.90
2023-08-04T01:27:20.742Z,99.90
2023-08-04T01:27:30.156Z,99.90
2023-08-04T01:27:39.539Z,99.90
2023-08-04T01:27:48.920Z,99.90
2023-08-04T01:28:07.710Z,99.90
2023-08-04T01:28:17.146Z,99.90
2023-08-04T01:28:26.525Z,99.90
2023-08-04T01:28:35.917Z,99.90
2023-08-04T01:28:45.308Z,99.90
2023-08-04T01:28:54.701Z,99.90
2023-08-04T01:29:13.491Z,99.90
2023-08-04T01:29:22.885Z,99.90
2023-08-04T01:29:32.273Z,99.90
2023-08-04T01:29:41.704Z,99.90
2023-08-04T01:29:51.093Z,99.90
2023-08-04T01:30:00.475Z,99.90
2023-08-04T01:30:19.251Z,99.90
2023-08-04T01:30:28.652Z,99.90
2023-08-04T01:30:38.032Z,99.90
2023-08-04T01:30:47.451Z,99.90
2023-08-04T01:30:56.848Z,99.90
2023-08-04T01:31:06.271Z,99.90
2023-08-04T01:31:25.037Z,99.90
2023-08-04T01:31:34.448Z,99.90
2023-08-04T01:31:43.823Z,99.90
2023-08-04T01:31:53.216Z,99.90
2023-08-04T01:32:02.634Z,99.90
2023-08-04T01:32:12.034Z,99.90
2023-08-04T01:32:30.934Z,99.90
2023-08-04T01:32:40.304Z,99.90
2023-08-04T01:32:49.705Z,99.90
2023-08-04T01:32:59.130Z,99.90
2023-08-04T01:33:08.594Z,99.90
2023-08-04T01:33:17.940Z,99.90
2023-08-04T01:33:36.751Z,99.90
2023-08-04T01:33:46.115Z,99.90
2023-08-04T01:33:55.557Z,99.90
2023-08-04T01:34:04.941Z,99.90
2023-08-04T01:34:14.332Z,99.90
2023-08-04T01:34:23.756Z,99.90
2023-08-04T01:34:42.490Z,99.90
2023-08-04T01:34:51.932Z,99.90
2023-08-04T01:35:01.305Z,99.90
2023-08-04T01:35:10.694Z,99.90
2023-08-04T01:35:20.237Z,99.90
2023-08-04T01:35:29.610Z,99.70
2023-08-04T01:35:48.406Z,99.60
2023-08-04T01:35:57.790Z,99.70
2023-08-04T01:36:07.244Z,99.80
2023-08-04T01:36:16.709Z,99.80
2023-08-04T01:36:26.112Z,99.60
2023-08-04T01:36:35.510Z,99.60
2023-08-04T01:36:54.271Z,99.50
2023-08-04T01:37:03.673Z,99.70
2023-08-04T01:37:13.086Z,99.70
2023-08-04T01:37:22.527Z,99.60
2023-08-04T01:37:31.939Z,99.60
2023-08-04T01:37:41.316Z,99.70
2023-08-04T01:38:00.100Z,99.60
2023-08-04T01:38:09.499Z,99.60
2023-08-04T01:38:18.894Z,99.60
2023-08-04T01:38:28.287Z,99.50
2023-08-04T01:38:37.693Z,99.60
2023-08-04T01:38:47.066Z,99.50
2023-08-04T01:39:05.908Z,99.40
2023-08-04T01:39:15.302Z,99.50
2023-08-04T01:39:24.682Z,99.50
2023-08-04T01:39:34.066Z,99.60
2023-08-04T01:39:43.492Z,99.50
2023-08-04T01:39:52.905Z,99.50
2023-08-04T01:40:11.686Z,99.30
2023-08-04T01:40:21.089Z,99.30
2023-08-04T01:40:30.528Z,99.30
2023-08-04T01:40:39.908Z,99.30
2023-08-04T01:40:49.334Z,99.20
2023-08-04T01:40:58.744Z,99.30
2023-08-04T01:41:17.540Z,99.30
2023-08-04T01:41:26.920Z,99.20
2023-08-04T01:41:36.322Z,99.10
2023-08-04T01:41:46.056Z,99.10
2023-08-04T01:41:55.099Z,99.10
2023-08-04T01:42:04.487Z,99.20
2023-08-04T01:42:23.286Z,99.20
2023-08-04T01:42:32.682Z,99.20
2023-08-04T01:42:42.068Z,99.30
2023-08-04T01:42:51.470Z,99.20
2023-08-04T01:43:00.860Z,99.20
2023-08-04T01:43:10.273Z,99.20
2023-08-04T01:43:29.024Z,99.30
2023-08-04T01:43:38.388Z,99.30
2023-08-04T01:43:47.773Z,99.20
2023-08-04T01:43:57.203Z,99.20
2023-08-04T01:44:06.642Z,99.20
2023-08-04T01:44:16.006Z,99.20
2023-08-04T01:44:34.764Z,99.00
2023-08-04T01:44:44.196Z,99.00
2023-08-04T01:44:53.585Z,99.00
2023-08-04T01:45:02.971Z,99.10
2023-08-04T01:45:12.364Z,99.10
2023-08-04T01:45:21.763Z,99.20
2023-08-04T01:45:40.587Z,99.20
2023-08-04T01:45:49.997Z,99.30
2023-08-04T01:45:59.378Z,99.30
2023-08-04T01:46:08.761Z,99.30
2023-08-04T01:46:18.149Z,99.30
2023-08-04T01:46:27.575Z,99.50
2023-08-04T01:46:46.362Z,99.40
2023-08-04T01:46:55.753Z,99.20
2023-08-04T01:47:05.155Z,99.20
2023-08-04T01:47:14.544Z,99.20
2023-08-04T01:47:23.958Z,99.10
2023-08-04T01:47:33.350Z,99.10
2023-08-04T01:47:52.574Z,99.10
2023-08-04T01:48:01.913Z,99.10
2023-08-04T01:48:11.331Z,99.10
2023-08-04T01:48:20.662Z,99.10
2023-08-04T01:48:30.085Z,99.20
2023-08-04T01:48:39.481Z,99.20
2023-08-04T01:48:58.236Z,99.20
2023-08-04T01:49:07.655Z,99.30
2023-08-04T01:49:17.085Z,99.20
2023-08-04T01:49:26.527Z,99.20
2023-08-04T01:49:35.941Z,99.10
2023-08-04T01:49:45.363Z,99.10
2023-08-04T01:50:04.209Z,99.10
2023-08-04T01:50:13.586Z,99.20
2023-08-04T01:50:22.963Z,99.20
2023-08-04T01:50:32.431Z,99.30
2023-08-04T01:50:41.817Z,99.30
2023-08-04T01:50:51.204Z,99.30
2023-08-04T01:51:09.995Z,99.20
2023-08-04T01:51:19.375Z,99.20
2023-08-04T01:51:28.754Z,99.20
2023-08-04T01:51:38.145Z,99.10
2023-08-04T01:51:47.861Z,99.10
2023-08-04T01:51:56.925Z,99.10
2023-08-04T01:52:15.703Z,99.20
2023-08-04T01:52:25.090Z,99.20
2023-08-04T01:52:34.484Z,99.10
2023-08-04T01:52:43.874Z,99.10
2023-08-04T01:52:53.253Z,99.10
2023-08-04T01:53:02.653Z,99.00
2023-08-04T01:53:21.471Z,98.80
2023-08-04T01:53:30.867Z,98.80
2023-08-04T01:53:40.233Z,98.80
2023-08-04T01:53:49.634Z,98.80
2023-08-04T01:53:59.035Z,98.80
2023-08-04T01:54:08.416Z,98.80
2023-08-04T01:54:27.240Z,98.80
2023-08-04T01:54:36.652Z,98.80
2023-08-04T01:54:46.111Z,98.80
2023-08-04T01:54:55.460Z,98.70
2023-08-04T01:55:04.846Z,98.90
2023-08-04T01:55:14.253Z,99.00
2023-08-04T01:55:33.535Z,98.90
2023-08-04T01:55:43.147Z,98.90
2023-08-04T01:55:52.836Z,98.80
2023-08-04T01:56:02.412Z,98.70
2023-08-04T01:56:11.920Z,98.70
2023-08-04T01:56:21.381Z,98.70
2023-08-04T01:56:40.197Z,98.80
2023-08-04T01:56:49.597Z,98.90
2023-08-04T01:56:59.026Z,98.80
2023-08-04T01:57:08.409Z,98.80
2023-08-04T01:57:17.796Z,98.80
2023-08-04T01:57:27.253Z,98.80
2023-08-04T01:57:46.157Z,98.80
2023-08-04T01:57:55.567Z,98.70
2023-08-04T01:58:04.972Z,98.80
2023-08-04T01:58:14.373Z,98.90
2023-08-04T01:58:23.783Z,99.00
2023-08-04T01:58:33.162Z,99.10
2023-08-04T01:58:52.189Z,99.00
2023-08-04T01:59:01.589Z,98.90
2023-08-04T01:59:10.980Z,98.90
2023-08-04T01:59:20.374Z,98.80
2023-08-04T01:59:29.775Z,98.80
2023-08-04T01:59:39.161Z,98.80
2023-08-04T01:59:58.080Z,98.90
2023-08-04T02:00:07.811Z,98.90
2023-08-04T02:00:17.182Z,98.80
2023-08-04T02:00:26.601Z,98.80
2023-08-04T02:00:35.988Z,98.80
2023-08-04T02:00:45.399Z,98.70
2023-08-04T02:01:04.251Z,98.70
2023-08-04T02:01:13.619Z,98.70
2023-08-04T02:01:23.254Z,98.70
2023-08-04T02:01:32.646Z,98.80
2023-08-04T02:01:42.035Z,98.80
2023-08-04T02:01:51.411Z,98.80
2023-08-04T02:02:10.233Z,99.00
2023-08-04T02:02:19.653Z,99.00
2023-08-04T02:02:29.231Z,98.90
2023-08-04T02:02:38.683Z,98.90
2023-08-04T02:02:48.065Z,99.00
2023-08-04T02:02:57.481Z,99.10
2023-08-04T02:03:16.319Z,99.10
2023-08-04T02:03:25.697Z,99.10
2023-08-04T02:03:35.085Z,99.30
2023-08-04T02:03:44.464Z,99.30
2023-08-04T02:03:53.858Z,99.30
2023-08-04T02:04:03.243Z,99.30
2023-08-04T02:04:22.074Z,99.30
2023-08-04T02:04:31.464Z,99.40
2023-08-04T02:04:40.848Z,99.40
2023-08-04T02:04:50.264Z,99.40
2023-08-04T02:04:59.636Z,99.40
2023-08-04T02:05:09.032Z,99.40
2023-08-04T02:05:27.781Z,99.40
2023-08-04T02:05:37.175Z,99.50
2023-08-04T02:05:46.552Z,99.50
2023-08-04T02:05:55.951Z,99.50
2023-08-04T02:06:05.363Z,99.50
2023-08-04T02:06:14.742Z,99.60
2023-08-04T02:06:33.565Z,99.60
2023-08-04T02:06:42.988Z,99.60
2023-08-04T02:06:52.363Z,99.60
2023-08-04T02:07:01.756Z,99.60
2023-08-04T02:07:11.160Z,99.60
2023-08-04T02:07:20.577Z,99.60
2023-08-04T02:07:39.356Z,99.60
2023-08-04T02:07:48.743Z,99.60
2023-08-04T02:07:58.165Z,99.70
2023-08-04T02:08:07.616Z,99.70
2023-08-04T02:08:17.023Z,99.70
2023-08-04T02:08:26.433Z,99.80
2023-08-04T02:08:45.242Z,99.80
2023-08-04T02:08:54.704Z,99.90
2023-08-04T02:09:04.111Z,99.90
2023-08-04T02:09:13.526Z,99.90
2023-08-04T02:09:22.933Z,99.90
2023-08-04T02:09:32.360Z,99.90
2023-08-04T02:09:51.228Z,99.90
2023-08-04T02:10:00.645Z,99.90
2023-08-04T02:10:10.113Z,99.90
2023-08-04T02:10:19.410Z,99.90
2023-08-04T02:10:28.792Z,99.90
2023-08-04T02:10:38.197Z,99.90
2023-08-04T02:10:56.978Z,99.90
2023-08-04T02:11:06.381Z,99.90
2023-08-04T02:11:15.806Z,99.90
2023-08-04T02:11:25.188Z,99.90
2023-08-04T02:11:34.591Z,99.90
2023-08-04T02:11:43.972Z,99.90
2023-08-04T02:12:02.829Z,99.90
2023-08-04T02:12:12.215Z,99.90
2023-08-04T02:12:21.609Z,99.90
2023-08-04T02:12:31.010Z,99.90
2023-08-04T02:12:40.415Z,99.90
2023-08-04T02:12:49.824Z,99.90
2023-08-04T02:13:08.598Z,99.90
2023-08-04T02:13:17.978Z,99.90
2023-08-04T02:13:27.391Z,99.90
2023-08-04T02:13:36.829Z,99.90
2023-08-04T02:13:46.380Z,99.90
2023-08-04T02:13:55.759Z,99.90
2023-08-04T02:14:14.631Z,99.90
2023-08-04T02:14:23.999Z,99.90
2023-08-04T02:14:33.418Z,99.90
2023-08-04T02:14:42.829Z,99.90
2023-08-04T02:14:52.379Z,99.90
2023-08-04T02:15:01.820Z,99.90
2023-08-04T02:15:20.690Z,99.90
2023-08-04T02:15:30.130Z,99.90
2023-08-04T02:15:39.551Z,99.90
2023-08-04T02:15:49.006Z,99.90
2023-08-04T02:15:58.394Z,99.90
2023-08-04T02:16:07.850Z,99.90
2023-08-04T02:16:26.636Z,99.90
2023-08-04T02:16:36.045Z,99.90
2023-08-04T02:16:45.450Z,99.90
2023-08-04T02:16:54.870Z,99.90
2023-08-04T02:17:04.293Z,99.90
2023-08-04T02:17:13.681Z,99.90
2023-08-04T02:17:32.478Z,99.90
2023-08-04T02:17:41.868Z,99.90
2023-08-04T02:17:51.346Z,99.90
2023-08-04T02:18:00.680Z,99.90
2023-08-04T02:18:10.093Z,99.90
2023-08-04T02:18:19.418Z,99.90
2023-08-04T02:18:38.239Z,99.90
2023-08-04T02:18:47.649Z,99.90
2023-08-04T02:18:57.037Z,99.90
2023-08-04T02:19:06.448Z,99.90
2023-08-04T02:19:15.850Z,99.90
2023-08-04T02:19:25.261Z,99.90
2023-08-04T02:19:44.085Z,99.90
2023-08-04T02:19:53.486Z,99.90
2023-08-04T02:20:02.877Z,99.90
2023-08-04T02:20:12.269Z,99.90
2023-08-04T02:20:21.660Z,99.90
2023-08-04T02:20:31.036Z,99.90
2023-08-04T02:20:49.845Z,99.90
2023-08-04T02:20:59.229Z,99.90
2023-08-04T02:21:08.651Z,99.90
2023-08-04T02:21:18.071Z,99.90
2023-08-04T02:21:27.492Z,99.90
2023-08-04T02:21:36.877Z,99.90
2023-08-04T02:21:55.658Z,99.90